Time;durP1;ratioP1;P1;durP2;ratioP2;P2;SDS_P1;SDS_P2;PMS_P1;PMS_P2;Temp;Humidity;BMP_temperature;BMP_pressure;BME280_temperature;BME280_humidity;BME280_pressure;Samples;Min_cycle;Max_cycle;Signal;HPM_P1;HPM_P2
2021/09/25 00:02:26;;;;;;;;;10.50;8.25;;;;;;;;5025170;28;9955;-85
2021/09/25 00:04:54;;;;;;;;;15.50;12.00;;;;;;;;5025015;28;9874;-86
2021/09/25 00:07:21;;;;;;;;;15.00;10.25;;;;;;;;5026188;28;9951;-86
2021/09/25 00:09:48;;;;;;;;;12.75;12.75;;;;;;;;5022351;28;9866;-86
2021/09/25 00:12:18;;;;;;;;;12.50;12.50;;;;;;;;5018265;28;10047;-86
2021/09/25 00:14:45;;;;;;;;;12.25;12.25;;;;;;;;5020810;28;9917;-86
2021/09/25 00:17:14;;;;;;;;;14.50;13.00;;;;;;;;5025092;28;9877;-87
2021/09/25 00:19:42;;;;;;;;;14.00;14.00;;;;;;;;5018824;28;9970;-87
2021/09/25 00:22:10;;;;;;;;;12.00;12.00;;;;;;;;5026163;28;9761;-80
2021/09/25 00:24:38;;;;;;;;;12.75;12.00;;;;;;;;5018275;28;10126;-86
2021/09/25 00:27:05;;;;;;;;;12.75;12.25;;;;;;;;5021865;28;9904;-86
2021/09/25 00:29:34;;;;;;;;;13.00;13.00;;;;;;;;5019309;28;10710;-88
2021/09/25 00:32:02;;;;;;;;;10.00;10.00;;;;;;;;5022674;28;9918;-88
2021/09/25 00:34:30;;;;;;;;;14.25;14.25;;;;;;;;5021268;28;10643;-81
2021/09/25 00:36:58;;;;;;;;;9.25;9.25;;;;;;;;5020291;28;9784;-87
2021/09/25 00:39:25;;;;;;;;;8.50;8.25;;;;;;;;5021334;28;9991;-85
2021/09/25 00:41:52;;;;;;;;;10.00;10.00;;;;;;;;5022850;28;9866;-86
2021/09/25 00:44:21;;;;;;;;;14.25;12.75;;;;;;;;5023944;28;9943;-86
2021/09/25 00:46:50;;;;;;;;;10.00;10.00;;;;;;;;5012472;28;9957;-89
2021/09/25 00:49:20;;;;;;;;;10.25;10.00;;;;;;;;5017126;28;9811;-86
2021/09/25 00:51:47;;;;;;;;;10.25;10.25;;;;;;;;5023662;28;9912;-83
2021/09/25 00:54:15;;;;;;;;;11.25;11.25;;;;;;;;5022932;28;9870;-82
2021/09/25 00:56:47;;;;;;;;;7.00;7.00;;;;;;;;5023737;28;9782;-78
2021/09/25 00:59:16;;;;;;;;;9.00;9.00;;;;;;;;5020662;28;9711;-84
2021/09/25 01:01:44;;;;;;;;;12.00;12.00;;;;;;;;5017204;28;9874;-80
2021/09/25 01:04:13;;;;;;;;;12.25;12.25;;;;;;;;5038078;28;9890;-80
2021/09/25 01:06:40;;;;;;;;;9.75;9.75;;;;;;;;5024100;28;9967;-84
2021/09/25 01:09:08;;;;;;;;;9.00;9.00;;;;;;;;5023797;28;9832;-81
2021/09/25 01:11:36;;;;;;;;;11.00;10.50;;;;;;;;5022500;28;9911;-81
2021/09/25 01:14:04;;;;;;;;;9.75;8.25;;;;;;;;5022436;28;11051;-83
2021/09/25 01:16:32;;;;;;;;;11.00;11.00;;;;;;;;5022824;28;9937;-82
2021/09/25 01:19:00;;;;;;;;;9.00;9.00;;;;;;;;5019345;28;9792;-81
2021/09/25 01:21:29;;;;;;;;;14.25;12.25;;;;;;;;5023284;28;10600;-81
2021/09/25 01:23:56;;;;;;;;;13.75;9.75;;;;;;;;5022163;28;10615;-81
2021/09/25 01:26:25;;;;;;;;;10.50;10.50;;;;;;;;5021374;28;9705;-86
2021/09/25 01:28:53;;;;;;;;;9.75;9.75;;;;;;;;5020162;28;9690;-82
2021/09/25 01:31:21;;;;;;;;;15.00;13.50;;;;;;;;5022215;28;10518;-86
2021/09/25 01:33:51;;;;;;;;;8.75;8.75;;;;;;;;5018937;28;9731;-86
2021/09/25 01:36:19;;;;;;;;;14.25;12.00;;;;;;;;5024668;28;9705;-86
2021/09/25 01:38:48;;;;;;;;;12.50;10.00;;;;;;;;5017981;28;10618;-87
2021/09/25 01:41:16;;;;;;;;;10.50;8.75;;;;;;;;5022232;28;9749;-88
2021/09/25 01:43:43;;;;;;;;;9.00;9.00;;;;;;;;5022740;28;9709;-87
2021/09/25 01:46:11;;;;;;;;;9.25;9.25;;;;;;;;5020207;28;10510;-85
2021/09/25 01:48:38;;;;;;;;;7.75;7.75;;;;;;;;5019875;28;9704;-88
2021/09/25 01:51:06;;;;;;;;;10.00;10.00;;;;;;;;5023583;28;9633;-86
2021/09/25 01:53:33;;;;;;;;;7.75;7.75;;;;;;;;5023470;28;9747;-85
2021/09/25 01:56:09;;;;;;;;;9.25;9.25;;;;;;;;5018985;28;9667;-88
2021/09/25 01:58:37;;;;;;;;;12.00;12.00;;;;;;;;5021150;28;9708;-77
2021/09/25 02:01:05;;;;;;;;;10.50;10.50;;;;;;;;5021787;28;9793;-88
2021/09/25 02:03:35;;;;;;;;;12.25;12.25;;;;;;;;5024644;28;9730;-80
2021/09/25 02:06:04;;;;;;;;;9.75;9.75;;;;;;;;5011739;28;9801;-77
2021/09/25 02:08:31;;;;;;;;;11.00;11.00;;;;;;;;5022151;28;9831;-87
2021/09/25 02:10:59;;;;;;;;;9.00;8.75;;;;;;;;5023656;28;9712;-85
2021/09/25 02:13:28;;;;;;;;;5.75;5.75;;;;;;;;5018590;28;9891;-85
2021/09/25 02:15:56;;;;;;;;;13.00;13.00;;;;;;;;5017132;28;10541;-85
2021/09/25 02:18:23;;;;;;;;;12.25;8.75;;;;;;;;5038833;28;9905;-86
2021/09/25 02:20:50;;;;;;;;;14.00;13.00;;;;;;;;5024635;28;9889;-88
2021/09/25 02:23:18;;;;;;;;;11.25;11.25;;;;;;;;5023212;28;9856;-80
2021/09/25 02:25:45;;;;;;;;;10.25;10.25;;;;;;;;5023686;28;10576;-87
2021/09/25 02:28:12;;;;;;;;;10.00;10.00;;;;;;;;5024511;28;9947;-88
2021/09/25 02:30:42;;;;;;;;;5.00;5.00;;;;;;;;5020956;28;9827;-87
2021/09/25 02:33:10;;;;;;;;;10.50;8.75;;;;;;;;5019857;28;9900;-85
2021/09/25 02:35:38;;;;;;;;;11.75;11.75;;;;;;;;5022738;28;9793;-85
2021/09/25 02:38:05;;;;;;;;;10.75;10.75;;;;;;;;5024078;28;9819;-83
2021/09/25 02:40:33;;;;;;;;;15.00;13.00;;;;;;;;5020630;28;10007;-87
2021/09/25 02:43:00;;;;;;;;;9.00;6.75;;;;;;;;5023563;28;9975;-86
2021/09/25 02:45:27;;;;;;;;;13.25;13.25;;;;;;;;5023826;28;10694;-82
2021/09/25 02:47:56;;;;;;;;;9.50;9.50;;;;;;;;5023155;28;9958;-87
2021/09/25 02:50:24;;;;;;;;;12.00;10.00;;;;;;;;5022975;28;9920;-84
2021/09/25 02:52:52;;;;;;;;;13.00;9.25;;;;;;;;5021753;28;9803;-84
2021/09/25 02:55:19;;;;;;;;;10.75;9.25;;;;;;;;5025206;28;9906;-84
2021/09/25 02:57:47;;;;;;;;;10.00;10.00;;;;;;;;5013053;28;10639;-86
2021/09/25 03:00:16;;;;;;;;;10.25;10.25;;;;;;;;5024971;28;10079;-88
2021/09/25 03:02:44;;;;;;;;;12.50;9.50;;;;;;;;5027128;28;9971;-83
2021/09/25 03:05:15;;;;;;;;;16.25;14.75;;;;;;;;5026998;28;9978;-85
2021/09/25 03:07:42;;;;;;;;;8.75;7.25;;;;;;;;5025848;28;9742;-85
2021/09/25 03:10:11;;;;;;;;;8.75;8.75;;;;;;;;5022491;28;9617;-84
2021/09/25 03:12:38;;;;;;;;;13.50;8.50;;;;;;;;5026892;28;10550;-84
2021/09/25 03:15:07;;;;;;;;;9.50;9.50;;;;;;;;5024885;28;9724;-84
2021/09/25 03:17:34;;;;;;;;;11.00;11.00;;;;;;;;5025781;28;9650;-84
2021/09/25 03:20:02;;;;;;;;;14.50;13.25;;;;;;;;5026638;28;9744;-83
2021/09/25 03:22:30;;;;;;;;;9.25;9.25;;;;;;;;5026480;28;9741;-82
2021/09/25 03:24:58;;;;;;;;;7.75;7.75;;;;;;;;5026688;28;9589;-80
2021/09/25 03:27:26;;;;;;;;;8.00;8.00;;;;;;;;5022466;28;9581;-76
2021/09/25 03:29:53;;;;;;;;;12.75;10.00;;;;;;;;5021094;28;9699;-78
2021/09/25 03:32:21;;;;;;;;;8.75;8.75;;;;;;;;5021951;28;9568;-82
2021/09/25 03:34:48;;;;;;;;;10.00;8.00;;;;;;;;5025178;28;9660;-83
2021/09/25 03:37:15;;;;;;;;;9.50;8.25;;;;;;;;5024821;28;9670;-82
2021/09/25 03:39:44;;;;;;;;;10.25;9.00;;;;;;;;5016528;28;10103;-84
2021/09/25 03:42:11;;;;;;;;;9.00;9.00;;;;;;;;5026675;28;9594;-87
2021/09/25 03:44:39;;;;;;;;;6.00;6.00;;;;;;;;5024847;28;9460;-85
2021/09/25 03:47:06;;;;;;;;;7.00;7.00;;;;;;;;5025968;28;9437;-84
2021/09/25 03:49:34;;;;;;;;;9.75;9.75;;;;;;;;5020894;28;9346;-79
2021/09/25 03:52:01;;;;;;;;;5.25;2.00;;;;;;;;5023136;28;9500;-81
2021/09/25 03:54:28;;;;;;;;;7.00;7.00;;;;;;;;5024797;28;9441;-81
2021/09/25 03:56:57;;;;;;;;;8.25;8.25;;;;;;;;5024177;28;9256;-81
2021/09/25 03:59:25;;;;;;;;;7.75;6.25;;;;;;;;5025448;28;9478;-84
2021/09/25 04:01:52;;;;;;;;;6.00;4.00;;;;;;;;5016500;28;9422;-80
2021/09/25 04:04:19;;;;;;;;;4.00;4.00;;;;;;;;5026447;28;9324;-81
2021/09/25 04:06:47;;;;;;;;;9.75;9.75;;;;;;;;5024490;28;9439;-84
2021/09/25 04:09:14;;;;;;;;;8.25;7.00;;;;;;;;5023867;28;9648;-78
2021/09/25 04:11:42;;;;;;;;;8.50;8.50;;;;;;;;5022482;28;9486;-77
2021/09/25 04:14:11;;;;;;;;;8.50;8.50;;;;;;;;5023065;28;9509;-81
2021/09/25 04:16:38;;;;;;;;;8.00;7.00;;;;;;;;5017313;28;9631;-80
2021/09/25 04:19:05;;;;;;;;;7.75;6.75;;;;;;;;5022607;28;9654;-80
2021/09/25 04:21:33;;;;;;;;;6.50;6.50;;;;;;;;5021455;28;9560;-77
2021/09/25 04:24:00;;;;;;;;;9.75;8.25;;;;;;;;5023953;28;10417;-78
2021/09/25 04:26:27;;;;;;;;;8.50;7.00;;;;;;;;5024915;28;9721;-78
2021/09/25 04:28:56;;;;;;;;;9.25;9.25;;;;;;;;5023817;28;9935;-76
2021/09/25 04:31:25;;;;;;;;;9.25;9.00;;;;;;;;5036561;28;9650;-84
2021/09/25 04:33:52;;;;;;;;;8.25;8.25;;;;;;;;5017875;28;9738;-77
2021/09/25 04:36:20;;;;;;;;;11.75;8.00;;;;;;;;5018233;28;9668;-75
2021/09/25 04:38:47;;;;;;;;;7.25;7.25;;;;;;;;5021859;28;10435;-74
2021/09/25 04:41:14;;;;;;;;;5.75;5.75;;;;;;;;5023392;28;9740;-76
2021/09/25 04:43:42;;;;;;;;;9.50;8.75;;;;;;;;5030956;28;9638;-80
2021/09/25 04:46:09;;;;;;;;;7.50;7.50;;;;;;;;5032902;28;9625;-76
2021/09/25 04:48:38;;;;;;;;;7.25;7.25;;;;;;;;5032091;28;9542;-75
2021/09/25 04:51:05;;;;;;;;;10.25;8.00;;;;;;;;5028023;28;9579;-78
2021/09/25 04:53:32;;;;;;;;;8.75;7.75;;;;;;;;5032860;28;10404;-78
2021/09/25 04:56:00;;;;;;;;;10.00;10.00;;;;;;;;5031297;28;9889;-80
2021/09/25 04:58:29;;;;;;;;;9.00;8.00;;;;;;;;5036691;28;9648;-80
2021/09/25 05:00:57;;;;;;;;;8.00;8.00;;;;;;;;5029583;28;9660;-77
2021/09/25 05:03:24;;;;;;;;;4.25;4.25;;;;;;;;5032607;28;9633;-77
2021/09/25 05:05:53;;;;;;;;;8.00;5.50;;;;;;;;5026168;28;9490;-76
2021/09/25 05:08:21;;;;;;;;;6.50;6.50;;;;;;;;5040939;28;9479;-74
2021/09/25 05:10:48;;;;;;;;;8.00;7.00;;;;;;;;5050164;28;9563;-77
2021/09/25 05:13:16;;;;;;;;;5.25;5.25;;;;;;;;5037962;28;9451;-75
2021/09/25 05:15:43;;;;;;;;;5.33;5.33;;;;;;;;5034322;28;9486;-78
2021/09/25 05:18:10;;;;;;;;;5.00;5.00;;;;;;;;5027785;28;9398;-79
2021/09/25 05:20:37;;;;;;;;;5.33;4.33;;;;;;;;5020359;28;9348;-77
2021/09/25 05:23:06;;;;;;;;;3.00;3.00;;;;;;;;5023985;28;9475;-78
2021/09/25 05:25:33;;;;;;;;;3.25;3.25;;;;;;;;5027810;28;9382;-77
2021/09/25 05:28:01;;;;;;;;;4.00;4.00;;;;;;;;5037026;28;9522;-78
2021/09/25 05:30:29;;;;;;;;;5.50;4.00;;;;;;;;5029940;28;9449;-78
2021/09/25 05:32:57;;;;;;;;;5.25;5.25;;;;;;;;5025937;28;10371;-79
2021/09/25 05:35:24;;;;;;;;;6.00;6.00;;;;;;;;5026079;28;9502;-77
2021/09/25 05:37:52;;;;;;;;;4.75;3.00;;;;;;;;5031767;28;9405;-78
2021/09/25 05:40:21;;;;;;;;;4.00;4.00;;;;;;;;5035414;28;9478;-78
2021/09/25 05:42:49;;;;;;;;;6.75;6.75;;;;;;;;5035111;28;9525;-78
2021/09/25 05:45:17;;;;;;;;;4.00;4.00;;;;;;;;5035132;28;9587;-80
2021/09/25 05:47:45;;;;;;;;;7.00;5.75;;;;;;;;5029674;28;9486;-80
2021/09/25 05:50:12;;;;;;;;;5.75;5.75;;;;;;;;5036969;28;9634;-80
2021/09/25 05:52:40;;;;;;;;;6.00;3.25;;;;;;;;5033476;28;9642;-82
2021/09/25 05:55:09;;;;;;;;;3.00;3.00;;;;;;;;5026799;28;9600;-83
2021/09/25 05:57:38;;;;;;;;;4.00;4.00;;;;;;;;5027135;28;9508;-81
2021/09/25 06:00:07;;;;;;;;;4.00;4.00;;;;;;;;5019899;28;10282;-82
2021/09/25 06:02:36;;;;;;;;;6.75;6.75;;;;;;;;5024703;28;9539;-79
2021/09/25 06:05:03;;;;;;;;;5.50;5.50;;;;;;;;5037897;28;9732;-78
2021/09/25 06:07:31;;;;;;;;;6.25;6.25;;;;;;;;5034501;28;9553;-79
2021/09/25 06:09:58;;;;;;;;;6.00;6.00;;;;;;;;5034877;28;9635;-79
2021/09/25 06:12:28;;;;;;;;;6.50;6.50;;;;;;;;5028857;28;9498;-80
2021/09/25 06:14:56;;;;;;;;;6.00;4.00;;;;;;;;5032184;28;9718;-77
2021/09/25 06:17:24;;;;;;;;;4.00;4.00;;;;;;;;5031788;28;9736;-77
2021/09/25 06:19:51;;;;;;;;;5.25;5.25;;;;;;;;5034721;28;9557;-77
2021/09/25 06:22:19;;;;;;;;;3.50;3.50;;;;;;;;5033166;28;9651;-77
2021/09/25 06:24:46;;;;;;;;;4.00;4.00;;;;;;;;5030941;28;9708;-81
2021/09/25 06:27:13;;;;;;;;;7.00;4.00;;;;;;;;5027541;28;9567;-79
2021/09/25 06:29:41;;;;;;;;;6.25;6.25;;;;;;;;5027351;28;9770;-79
2021/09/25 06:32:10;;;;;;;;;7.00;6.75;;;;;;;;5037388;28;9433;-79
2021/09/25 06:34:37;;;;;;;;;9.50;9.50;;;;;;;;5035645;28;9576;-79
2021/09/25 06:37:05;;;;;;;;;5.75;5.75;;;;;;;;5040281;28;9651;-78
2021/09/25 06:39:32;;;;;;;;;6.00;6.00;;;;;;;;5030252;28;9550;-81
2021/09/25 06:42:00;;;;;;;;;7.00;7.00;;;;;;;;5032465;28;9510;-80
2021/09/25 06:44:27;;;;;;;;;4.75;4.75;;;;;;;;5029189;28;9747;-79
2021/09/25 06:46:55;;;;;;;;;6.25;6.25;;;;;;;;5021664;28;9658;-71
2021/09/25 06:49:24;;;;;;;;;4.00;4.00;;;;;;;;5025845;28;9396;-72
2021/09/25 06:51:51;;;;;;;;;5.25;5.25;;;;;;;;5021034;28;9472;-71
2021/09/25 06:54:18;;;;;;;;;11.00;7.75;;;;;;;;5032148;28;10445;-71
2021/09/25 06:56:46;;;;;;;;;8.33;5.33;;;;;;;;5033524;28;9546;-71
2021/09/25 06:59:13;;;;;;;;;8.67;7.00;;;;;;;;5037468;28;9641;-71
2021/09/25 07:01:40;;;;;;;;;7.00;7.00;;;;;;;;5029728;28;9451;-71
2021/09/25 07:04:07;;;;;;;;;9.00;8.00;;;;;;;;5026121;28;9485;-71
2021/09/25 07:06:39;;;;;;;;;7.00;7.00;;;;;;;;5019563;28;9401;-71
2021/09/25 07:09:06;;;;;;;;;10.00;8.00;;;;;;;;5031155;28;9478;-71
2021/09/25 07:11:33;;;;;;;;;7.50;7.50;;;;;;;;5033533;28;9555;-70
2021/09/25 07:14:01;;;;;;;;;7.00;7.00;;;;;;;;5033839;28;9621;-71
2021/09/25 07:16:29;;;;;;;;;9.00;7.50;;;;;;;;5019536;28;9395;-71
2021/09/25 07:18:56;;;;;;;;;7.25;7.25;;;;;;;;5034751;28;9425;-70
2021/09/25 07:21:24;;;;;;;;;7.50;7.50;;;;;;;;5016776;28;9477;-72
2021/09/25 07:23:52;;;;;;;;;7.00;7.00;;;;;;;;5032818;28;9429;-72
2021/09/25 07:26:20;;;;;;;;;8.00;8.00;;;;;;;;5025457;28;9345;-70
2021/09/25 07:28:47;;;;;;;;;7.67;7.33;;;;;;;;5023637;28;9324;-72
2021/09/25 07:31:14;;;;;;;;;9.00;8.00;;;;;;;;5012823;28;9306;-72
2021/09/25 07:33:44;;;;;;;;;9.67;9.67;;;;;;;;5014083;28;9415;-71
2021/09/25 07:36:12;;;;;;;;;9.00;7.33;;;;;;;;5017991;28;10153;-71
2021/09/25 07:38:39;;;;;;;;;4.00;4.00;;;;;;;;5035661;28;9332;-72
2021/09/25 07:41:09;;;;;;;;;6.33;6.33;;;;;;;;5034816;28;9322;-73
2021/09/25 07:43:36;;;;;;;;;11.00;9.67;;;;;;;;5035950;28;9273;-73
2021/09/25 07:46:04;;;;;;;;;9.00;9.00;;;;;;;;5035791;28;9233;-74
2021/09/25 07:48:31;;;;;;;;;10.00;10.00;;;;;;;;5035195;28;9116;-73
2021/09/25 07:50:58;;;;;;;;;7.67;7.67;;;;;;;;5032876;28;9333;-73
2021/09/25 07:53:26;;;;;;;;;10.00;8.67;;;;;;;;5030394;28;9257;-72
2021/09/25 07:55:53;;;;;;;;;4.00;4.00;;;;;;;;5036261;28;9241;-74
2021/09/25 07:58:22;;;;;;;;;7.00;7.00;;;;;;;;5038345;28;9115;-73
2021/09/25 08:00:51;;;;;;;;;8.67;7.00;;;;;;;;5043465;28;9069;-74
2021/09/25 08:03:19;;;;;;;;;8.33;8.33;;;;;;;;5036997;28;9168;-74
2021/09/25 08:05:46;;;;;;;;;8.25;8.25;;;;;;;;5025479;28;9069;-74
2021/09/25 08:08:13;;;;;;;;;8.67;8.67;;;;;;;;5030755;28;8877;-73
2021/09/25 08:10:41;;;;;;;;;8.33;7.33;;;;;;;;5036280;28;9031;-73
2021/09/25 08:13:08;;;;;;;;;8.67;8.67;;;;;;;;5040696;28;9107;-73
2021/09/25 08:15:39;;;;;;;;;12.50;10.50;;;;;;;;5039255;28;9044;-73
2021/09/25 08:18:08;;;;;;;;;11.50;9.00;;;;;;;;5041148;28;8879;-73
2021/09/25 08:20:35;;;;;;;;;9.75;9.75;;;;;;;;5038284;28;8921;-74
2021/09/25 08:23:03;;;;;;;;;7.75;6.00;;;;;;;;5042421;28;8873;-74
2021/09/25 08:25:30;;;;;;;;;8.75;8.75;;;;;;;;5041800;28;8875;-74
2021/09/25 08:27:58;;;;;;;;;7.75;7.75;;;;;;;;5035759;28;8866;-74
2021/09/25 08:30:26;;;;;;;;;8.25;8.25;;;;;;;;5035815;28;8790;-73
2021/09/25 08:32:54;;;;;;;;;18.00;17.50;;;;;;;;5038166;28;8952;-73
2021/09/25 08:35:22;;;;;;;;;12.75;12.00;;;;;;;;5037618;28;8871;-72
2021/09/25 08:37:50;;;;;;;;;11.25;10.25;;;;;;;;5037324;28;8910;-73
2021/09/25 08:40:21;;;;;;;;;6.75;6.75;;;;;;;;5045783;28;8855;-73
2021/09/25 08:42:48;;;;;;;;;11.75;11.75;;;;;;;;5040433;28;8937;-73
2021/09/25 08:45:16;;;;;;;;;8.50;8.50;;;;;;;;5042016;28;8875;-73
2021/09/25 08:47:44;;;;;;;;;10.75;8.50;;;;;;;;5038857;28;9731;-73
2021/09/25 08:50:15;;;;;;;;;14.00;11.25;;;;;;;;5041736;28;9013;-73
2021/09/25 08:52:43;;;;;;;;;9.00;6.75;;;;;;;;5033827;28;8913;-74
2021/09/25 08:55:12;;;;;;;;;9.00;9.00;;;;;;;;5023047;28;8891;-74
2021/09/25 08:57:40;;;;;;;;;7.50;7.50;;;;;;;;5022638;28;8893;-73
2021/09/25 09:00:37;;;;;;;;;11.00;11.00;;;;;;;;5023843;28;10211;-74
2021/09/25 09:03:23;;;;;;;;;9.00;9.00;;;;;;;;5024425;28;9000;-74
2021/09/25 09:05:54;;;;;;;;;10.75;10.75;;;;;;;;5032076;28;8883;-75
2021/09/25 09:08:22;;;;;;;;;13.50;13.50;;;;;;;;5018493;28;8913;-73
2021/09/25 09:10:50;;;;;;;;;10.50;10.50;;;;;;;;5025063;28;8892;-73
2021/09/25 09:13:17;;;;;;;;;16.00;13.25;;;;;;;;5024024;28;8893;-76
2021/09/25 09:15:45;;;;;;;;;15.50;15.50;;;;;;;;5021493;28;8892;-74
2021/09/25 09:18:18;;;;;;;;;14.00;14.00;;;;;;;;5038978;28;8887;-76
2021/09/25 09:23:45;;;;;;;;;17.00;17.00;;;;;;;;5108726;27;13712;-76
2021/09/25 09:26:16;;;;;;;;;13.25;13.25;;;;;;;;5104548;27;8860;-76
2021/09/25 09:28:44;;;;;;;;;17.50;17.50;;;;;;;;5097758;27;8871;-76
2021/09/25 09:31:12;;;;;;;;;14.75;13.50;;;;;;;;5081543;28;9644;-75
2021/09/25 09:33:42;;;;;;;;;16.00;14.50;;;;;;;;5054386;28;9702;-77
2021/09/25 09:36:21;;;;;;;;;13.00;12.75;;;;;;;;5045646;28;8887;-76
2021/09/25 09:39:06;;;;;;;;;20.50;16.50;;;;;;;;5052323;28;8861;-74
2021/09/25 09:41:38;;;;;;;;;18.00;18.00;;;;;;;;5042307;28;8876;-75
2021/09/25 09:44:08;;;;;;;;;11.00;10.50;;;;;;;;5056973;28;8853;-74
2021/09/25 09:46:39;;;;;;;;;15.00;14.75;;;;;;;;5056986;28;8885;-77
2021/09/25 09:49:08;;;;;;;;;17.20;14.00;;;;;;;;5048671;28;8942;-74
2021/09/25 09:51:41;;;;;;;;;17.50;17.50;;;;;;;;5055459;28;9660;-74
2021/09/25 09:54:21;;;;;;;;;21.80;19.40;;;;;;;;5048786;28;8891;-73
2021/09/25 09:56:50;;;;;;;;;21.60;20.20;;;;;;;;5051029;28;8868;-74
2021/09/25 09:59:17;;;;;;;;;18.60;17.00;;;;;;;;5053759;28;8935;-72
2021/09/25 10:01:46;;;;;;;;;23.80;19.60;;;;;;;;5058036;28;9922;-71
2021/09/25 10:04:14;;;;;;;;;17.40;17.40;;;;;;;;5049423;28;8889;-74
2021/09/25 10:06:42;;;;;;;;;21.40;17.60;;;;;;;;5053059;28;8880;-73
2021/09/25 10:09:10;;;;;;;;;17.20;17.20;;;;;;;;5048860;28;8881;-73
2021/09/25 10:11:41;;;;;;;;;20.60;19.40;;;;;;;;5057188;28;8873;-74
2021/09/25 10:14:18;;;;;;;;;14.80;14.80;;;;;;;;5050874;28;8988;-73
2021/09/25 10:16:46;;;;;;;;;15.80;15.00;;;;;;;;5051720;28;8950;-75
2021/09/25 10:19:20;;;;;;;;;16.80;15.00;;;;;;;;5058228;28;8871;-74
2021/09/25 10:21:48;;;;;;;;;16.80;16.80;;;;;;;;5053196;28;8971;-73
2021/09/25 10:24:20;;;;;;;;;18.20;18.20;;;;;;;;5057218;28;8894;-74
2021/09/25 10:26:49;;;;;;;;;17.60;15.80;;;;;;;;5046385;28;8856;-75
2021/09/25 10:29:20;;;;;;;;;21.20;19.80;;;;;;;;5055126;28;8854;-75
2021/09/25 10:31:49;;;;;;;;;16.20;15.20;;;;;;;;5046582;28;8803;-75
2021/09/25 10:34:19;;;;;;;;;17.40;15.80;;;;;;;;5043877;28;8880;-75
2021/09/25 10:36:50;;;;;;;;;17.40;17.00;;;;;;;;5045789;28;8858;-74
2021/09/25 10:39:35;;;;;;;;;18.00;16.40;;;;;;;;5039162;28;8866;-75
2021/09/25 10:42:15;;;;;;;;;21.00;17.80;;;;;;;;5033556;28;8873;-76
2021/09/25 10:44:46;;;;;;;;;18.40;18.40;;;;;;;;5040138;28;8875;-74
2021/09/25 10:47:16;;;;;;;;;16.80;15.80;;;;;;;;5038192;28;8870;-74
2021/09/25 10:49:52;;;;;;;;;21.00;21.00;;;;;;;;5032688;28;8860;-74
2021/09/25 10:52:23;;;;;;;;;18.40;17.00;;;;;;;;5041843;28;8857;-75
2021/09/25 10:55:19;;;;;;;;;17.60;17.60;;;;;;;;5035467;28;8874;-75
2021/09/25 10:58:25;;;;;;;;;17.00;15.20;;;;;;;;5036515;28;8852;-74
2021/09/25 11:00:56;;;;;;;;;17.40;17.40;;;;;;;;5019128;28;8941;-76
2021/09/25 11:03:56;;;;;;;;;20.20;17.00;;;;;;;;5042990;28;8874;-76
2021/09/25 11:06:29;;;;;;;;;14.80;14.80;;;;;;;;5044918;28;8842;-74
2021/09/25 11:08:59;;;;;;;;;14.00;14.00;;;;;;;;5036257;28;8869;-75
2021/09/25 11:11:38;;;;;;;;;15.00;15.00;;;;;;;;5032449;28;8977;-75
2021/09/25 11:14:10;;;;;;;;;20.40;16.40;;;;;;;;5040468;28;8878;-75
2021/09/25 11:16:51;;;;;;;;;12.20;11.20;;;;;;;;5044561;28;8846;-76
2021/09/25 11:19:43;;;;;;;;;11.60;11.60;;;;;;;;5040058;28;9002;-74
2021/09/25 11:22:13;;;;;;;;;7.60;7.60;;;;;;;;5030767;28;8893;-74
2021/09/25 11:24:43;;;;;;;;;11.80;11.80;;;;;;;;5027671;28;8847;-74
2021/09/25 11:27:14;;;;;;;;;11.20;9.20;;;;;;;;5031633;28;9011;-74
2021/09/25 11:30:06;;;;;;;;;12.00;12.00;;;;;;;;5041270;28;8992;-74
2021/09/25 11:32:36;;;;;;;;;12.40;12.40;;;;;;;;5028080;28;8830;-74
2021/09/25 11:35:07;;;;;;;;;10.60;10.60;;;;;;;;5023036;28;9036;-74
2021/09/25 11:37:35;;;;;;;;;10.00;10.00;;;;;;;;5039471;28;8881;-74
2021/09/25 11:40:03;;;;;;;;;12.60;11.80;;;;;;;;5026745;28;8864;-74
2021/09/25 11:42:32;;;;;;;;;10.80;10.80;;;;;;;;5037405;28;8858;-75
2021/09/25 11:45:02;;;;;;;;;11.40;11.40;;;;;;;;5038721;28;8863;-74
2021/09/25 11:47:33;;;;;;;;;10.00;9.00;;;;;;;;5042794;28;8877;-75
2021/09/25 11:50:12;;;;;;;;;11.40;9.20;;;;;;;;5037045;28;8962;-74
2021/09/25 11:52:40;;;;;;;;;10.00;8.60;;;;;;;;5040606;28;8853;-74
2021/09/25 11:55:09;;;;;;;;;10.00;9.60;;;;;;;;5042737;28;9675;-74
2021/09/25 11:57:37;;;;;;;;;11.40;9.40;;;;;;;;5016131;28;8884;-72
2021/09/25 12:00:18;;;;;;;;;8.80;8.80;;;;;;;;5036200;28;8882;-73
2021/09/25 12:02:46;;;;;;;;;12.60;10.00;;;;;;;;5027957;28;8881;-73
2021/09/25 12:05:27;;;;;;;;;7.80;7.80;;;;;;;;5027553;28;8861;-73
2021/09/25 12:07:55;;;;;;;;;8.40;8.40;;;;;;;;5029067;28;8858;-73
2021/09/25 12:10:24;;;;;;;;;9.60;9.60;;;;;;;;5037187;28;8897;-74
2021/09/25 12:12:57;;;;;;;;;10.20;10.00;;;;;;;;5034546;28;8846;-75
2021/09/25 12:15:27;;;;;;;;;6.00;6.00;;;;;;;;5039971;28;8866;-73
2021/09/25 12:18:14;;;;;;;;;7.60;7.60;;;;;;;;5036833;28;8870;-74
2021/09/25 12:20:45;;;;;;;;;7.20;6.60;;;;;;;;5039245;28;9635;-73
2021/09/25 12:23:12;;;;;;;;;8.60;6.40;;;;;;;;5038418;28;8857;-73
2021/09/25 12:25:42;;;;;;;;;10.00;10.00;;;;;;;;5025450;28;8864;-74
2021/09/25 12:28:27;;;;;;;;;11.20;9.40;;;;;;;;5034297;28;8894;-73
2021/09/25 12:30:54;;;;;;;;;8.60;8.60;;;;;;;;5041690;28;9712;-73
2021/09/25 12:33:21;;;;;;;;;7.00;7.00;;;;;;;;5023324;28;8866;-74
2021/09/25 12:36:00;;;;;;;;;8.60;8.60;;;;;;;;5030326;28;8964;-73
2021/09/25 12:38:32;;;;;;;;;7.40;7.40;;;;;;;;5031948;28;8846;-73
2021/09/25 12:41:02;;;;;;;;;9.80;9.80;;;;;;;;5034987;28;8887;-73
2021/09/25 12:43:34;;;;;;;;;10.60;9.60;;;;;;;;5030351;28;8896;-74
2021/09/25 12:46:06;;;;;;;;;11.00;9.00;;;;;;;;5037306;28;8888;-71
2021/09/25 12:48:33;;;;;;;;;9.00;9.00;;;;;;;;5037487;28;8868;-73
2021/09/25 12:51:02;;;;;;;;;8.40;8.20;;;;;;;;5038146;28;8881;-73
2021/09/25 12:53:30;;;;;;;;;8.80;8.80;;;;;;;;5014329;28;8876;-73
2021/09/25 12:55:57;;;;;;;;;8.80;8.00;;;;;;;;5034414;28;8876;-73
2021/09/25 12:58:28;;;;;;;;;9.00;9.00;;;;;;;;5036203;28;8874;-73
2021/09/25 13:00:56;;;;;;;;;9.40;9.40;;;;;;;;5037635;28;9584;-74
2021/09/25 13:03:25;;;;;;;;;7.20;7.20;;;;;;;;5039413;28;8890;-73
2021/09/25 13:05:53;;;;;;;;;8.80;8.80;;;;;;;;5036079;28;8854;-73
2021/09/25 13:08:24;;;;;;;;;8.60;8.60;;;;;;;;5036641;28;8879;-73
2021/09/25 13:10:52;;;;;;;;;8.60;8.60;;;;;;;;5032611;28;9000;-74
2021/09/25 13:13:23;;;;;;;;;7.40;7.40;;;;;;;;5035454;28;8866;-73
2021/09/25 13:15:50;;;;;;;;;9.20;9.20;;;;;;;;5034430;28;8866;-74
2021/09/25 13:18:18;;;;;;;;;8.40;8.40;;;;;;;;5033544;28;9001;-74
2021/09/25 13:20:45;;;;;;;;;11.80;8.60;;;;;;;;5033523;28;8887;-76
2021/09/25 13:23:22;;;;;;;;;9.00;9.00;;;;;;;;5036282;28;8943;-75
2021/09/25 13:25:52;;;;;;;;;8.00;8.00;;;;;;;;5039695;28;8870;-75
2021/09/25 13:28:19;;;;;;;;;10.20;9.00;;;;;;;;5034347;28;8877;-75
2021/09/25 13:30:47;;;;;;;;;11.00;9.60;;;;;;;;5035166;28;8810;-74
2021/09/25 13:33:15;;;;;;;;;9.00;9.00;;;;;;;;5031281;28;8870;-75
2021/09/25 13:35:44;;;;;;;;;7.80;7.80;;;;;;;;5030434;28;8913;-74
2021/09/25 13:38:12;;;;;;;;;9.60;9.60;;;;;;;;5036832;28;8967;-75
2021/09/25 13:40:40;;;;;;;;;9.40;9.40;;;;;;;;5037297;28;8864;-74
2021/09/25 13:43:08;;;;;;;;;10.80;10.20;;;;;;;;5029283;28;8865;-76
2021/09/25 13:45:35;;;;;;;;;10.00;10.00;;;;;;;;5011528;28;8874;-74
2021/09/25 13:48:02;;;;;;;;;10.00;10.00;;;;;;;;5034232;28;8834;-75
2021/09/25 13:50:33;;;;;;;;;9.80;8.00;;;;;;;;5031700;28;8862;-74
2021/09/25 13:53:00;;;;;;;;;12.00;10.80;;;;;;;;5033829;28;8896;-75
2021/09/25 13:55:27;;;;;;;;;9.00;9.00;;;;;;;;5034799;28;8869;-75
2021/09/25 13:57:56;;;;;;;;;8.80;8.80;;;;;;;;5032810;28;8871;-75
2021/09/25 14:00:23;;;;;;;;;10.00;10.00;;;;;;;;5030350;28;8876;-74
2021/09/25 14:02:54;;;;;;;;;8.20;8.20;;;;;;;;5034072;28;8881;-75
2021/09/25 14:05:22;;;;;;;;;9.80;9.80;;;;;;;;5037539;28;9029;-75
2021/09/25 14:07:50;;;;;;;;;10.00;10.00;;;;;;;;5018542;28;8898;-77
2021/09/25 14:10:17;;;;;;;;;13.00;10.00;;;;;;;;5035079;28;8867;-76
2021/09/25 14:12:44;;;;;;;;;11.60;9.00;;;;;;;;5033756;28;8873;-76
2021/09/25 14:15:14;;;;;;;;;8.20;8.20;;;;;;;;5038789;28;8902;-76
2021/09/25 14:17:41;;;;;;;;;6.00;5.20;;;;;;;;5037593;28;10027;-76
2021/09/25 14:20:10;;;;;;;;;10.00;9.40;;;;;;;;5041931;28;8961;-75
2021/09/25 14:22:37;;;;;;;;;8.80;8.80;;;;;;;;5041356;28;8870;-76
2021/09/25 14:25:05;;;;;;;;;11.40;9.40;;;;;;;;5040758;28;9646;-75
2021/09/25 14:27:33;;;;;;;;;10.20;10.20;;;;;;;;5020012;28;8859;-77
2021/09/25 14:30:00;;;;;;;;;9.00;9.00;;;;;;;;5031763;28;8862;-74
2021/09/25 14:32:29;;;;;;;;;9.60;9.60;;;;;;;;5035547;28;8807;-75
2021/09/25 14:34:56;;;;;;;;;11.80;11.00;;;;;;;;5018764;28;8888;-74
2021/09/25 14:37:24;;;;;;;;;9.20;9.20;;;;;;;;5035129;28;8864;-75
2021/09/25 14:39:51;;;;;;;;;8.80;8.80;;;;;;;;5042129;28;8925;-74
2021/09/25 14:42:18;;;;;;;;;10.60;10.60;;;;;;;;5041803;28;8901;-75
2021/09/25 14:44:45;;;;;;;;;9.60;9.60;;;;;;;;5039469;28;8847;-74
2021/09/25 14:47:13;;;;;;;;;11.40;9.60;;;;;;;;5037400;28;9636;-75
2021/09/25 14:49:41;;;;;;;;;9.20;9.20;;;;;;;;5038376;28;8874;-74
2021/09/25 14:52:09;;;;;;;;;9.00;9.00;;;;;;;;5033747;28;9005;-75
2021/09/25 14:54:36;;;;;;;;;9.20;9.20;;;;;;;;5037876;28;8896;-74
2021/09/25 14:57:04;;;;;;;;;13.00;10.00;;;;;;;;5035209;28;8974;-74
2021/09/25 14:59:31;;;;;;;;;11.60;9.40;;;;;;;;5035545;28;8873;-74